EDT,Max TemperatureF,Mean TemperatureF,Min TemperatureF,Max Dew PointF,MeanDew PointF,Min DewpointF,Max Humidity, Mean Humidity, Min Humidity, Max Sea Level PressureIn, Mean Sea Level PressureIn, Min Sea Level PressureIn, Max VisibilityMiles, Mean VisibilityMiles, Min VisibilityMiles, Max Wind SpeedMPH, Mean Wind SpeedMPH, Max Gust SpeedMPH,PrecipitationIn, CloudCover, Events, WindDirDegrees
2014-3-1,32,22,12,20,4,-8,69,44,39,30.32,30.19,30.10,10,10,10,16,11,,0.00,5,,180
2014-3-2,27,18,9,22,12,0,93,80,67,30.22,30.15,30.09,10,5,1,15,9,16,0.00,8,Snow,328
2014-3-3,10,1,-8,3,-2,-13,84,76,60,30.43,30.28,30.16,10,6,2,17,11,18,0.00,6,Snow,327
2014-3-4,20,4,-11,11,-2,-17,83,72,44,30.43,30.34,30.21,10,10,3,10,2,,0.00,6,Snow,110
2014-3-5,20,11,-1,13,9,-6,88,76,62,30.59,30.36,30.21,10,8,2,13,4,,0.00,6,Snow,338
2014-3-6,29,10,-8,2,-4,-14,83,54,28,30.67,30.55,30.39,10,10,10,13,4,,0.00,0,,136
2014-3-7,41,29,17,24,16,1,81,62,46,30.36,30.15,29.94,10,10,10,14,10,21,0.00,0,,154
2014-3-8,39,30,22,29,25,20,100,84,60,30.01,29.94,29.85,10,7,3,13,6,,0.00,6,Snow,353
2014-3-9,31,26,20,25,17,12,93,68,45,30.14,30.02,29.83,10,9,4,16,10,22,0.00,5,Snow,308
2014-3-10,50,40,31,33,25,14,64,56,48,29.84,29.70,29.55,10,10,10,10,5,,0.00,6,,215
2014-3-11,52,43,34,34,32,30,89,64,42,29.74,29.65,29.55,10,10,10,10,5,,0.00,3,Rain,331
2014-3-12,37,24,11,37,28,8,100,95,85,29.70,29.51,29.20,9,2,0,28,5,38,0.63,8,Fog-Rain-Snow,339
2014-3-13,16,10,5,7,4,-1,88,79,61,30.13,29.76,29.55,10,4,0,25,19,36,0.00,7,Fog-Snow,324
2014-3-14,45,26,8,25,16,4,84,57,42,30.12,29.93,29.67,10,10,10,21,8,26,0.00,4,,168
2014-3-15,43,34,23,36,28,11,86,69,51,30.14,29.82,29.65,10,10,10,23,11,30,0.00,7,Rain,265
2014-3-16,22,16,10,14,8,2,86,67,54,30.33,30.24,30.13,10,8,1,17,13,24,0.00,5,Snow,333
2014-3-17,27,18,8,12,5,-4,87,63,32,30.23,30.14,30.07,10,10,10,13,3,,0.00,0,,11
2014-3-18,43,30,17,19,9,2,57,43,28,30.22,30.18,30.10,10,10,10,15,7,21,0.00,3,,128
2014-3-19,41,36,32,36,23,8,93,62,29,30.17,29.98,29.74,10,10,7,22,14,33,0.00,7,Rain,167
2014-3-20,39,34,30,37,31,24,93,81,63,29.93,29.79,29.68,10,10,4,22,11,28,0.00,8,Rain-Snow,245
2014-3-21,36,30,25,22,20,16,84,66,55,30.08,30.02,29.94,10,10,10,18,13,24,0.00,5,Snow,319
2014-3-22,50,37,28,34,26,19,81,64,48,30.09,29.86,29.67,10,10,10,23,12,32,0.00,7,Rain,262
2014-3-23,32,24,15,25,15,4,86,72,58,30.26,30.14,30.02,10,8,1,18,12,25,0.00,7,Snow,325
2014-3-24,22,16,11,11,9,5,92,76,52,30.28,30.21,30.16,10,5,1,15,9,22,0.00,7,Snow,325
2014-3-25,36,21,6,20,10,3,92,62,29,30.14,30.00,29.89,10,10,10,12,3,16,0.00,5,Snow,170
2014-3-26,25,20,15,21,12,5,93,74,53,30.30,30.07,29.91,10,6,0,23,13,30,0.00,7,Snow,325
2014-3-27,41,24,6,17,10,3,87,54,29,30.39,30.25,30.06,10,10,10,16,8,23,0.00,4,,200
2014-3-28,54,45,36,45,34,18,90,72,41,30.17,29.96,29.82,10,10,6,18,14,29,0.06,8,Rain,189
2014-3-29,43,38,33,37,34,32,100,91,70,30.25,30.03,29.80,10,6,0,14,5,,0.51,8,Fog-Rain,343
2014-3-30,36,33,30,36,31,28,100,97,88,29.99,29.82,29.76,10,3,0,22,11,30,0.30,8,Fog-Rain-Snow,331
2014-3-31,41,34,26,32,28,25,96,80,65,30.24,30.13,29.97,10,10,10,21,13,26,0.00,5,,348